createdAt,value
2018-12-25T00:01:59.117Z,25.31
2018-12-25T00:04:06.391Z,25.30
2018-12-25T00:06:13.869Z,25.28
2018-12-25T00:08:26.975Z,25.26
2018-12-25T00:10:44.547Z,25.32
2018-12-25T00:15:38.344Z,25.39
2018-12-25T00:17:47.136Z,25.53
2018-12-25T00:19:54.094Z,25.42
2018-12-25T00:22:01.525Z,25.22
2018-12-25T00:24:08.878Z,25.16
2018-12-25T00:26:16.175Z,25.16
2018-12-25T00:28:23.301Z,25.12
2018-12-25T00:30:30.868Z,25.11
2018-12-25T00:32:38.165Z,25.20
2018-12-25T00:34:45.406Z,25.21
2018-12-25T00:37:01.786Z,25.27
2018-12-25T00:39:13.603Z,25.17
2018-12-25T00:41:20.916Z,25.15
2018-12-25T00:43:28.061Z,25.23
2018-12-25T00:45:35.428Z,25.19
2018-12-25T00:47:42.546Z,25.17
2018-12-25T00:49:50.561Z,25.17
2018-12-25T00:51:57.686Z,25.22
2018-12-25T00:54:04.907Z,25.21
2018-12-25T00:56:13.005Z,25.26
2018-12-25T00:58:20.262Z,25.26
2018-12-25T01:00:27.577Z,25.21
2018-12-25T01:02:35.362Z,25.22
2018-12-25T01:04:43.493Z,25.29
2018-12-25T01:06:51.624Z,25.29
2018-12-25T01:08:58.828Z,25.37
2018-12-25T01:11:06.785Z,25.37
2018-12-25T01:13:15.434Z,25.41
2018-12-25T01:15:23.777Z,25.35
2018-12-25T01:17:31.152Z,25.30
2018-12-25T01:19:38.632Z,25.25
2018-12-25T01:21:46.647Z,24.98
2018-12-25T01:23:54.567Z,24.99
2018-12-25T01:26:03.389Z,24.98
2018-12-25T01:28:10.804Z,24.90
2018-12-25T01:30:19.256Z,24.87
2018-12-25T01:32:27.055Z,24.88
2018-12-25T01:34:35.325Z,24.89
2018-12-25T01:36:42.410Z,24.95
2018-12-25T01:38:49.584Z,25.06
2018-12-25T01:40:57.351Z,25.04
2018-12-25T01:43:05.161Z,25.08
2018-12-25T01:45:12.809Z,25.10
2018-12-25T01:47:20.473Z,24.80
2018-12-25T01:49:31.768Z,24.87
2018-12-25T01:51:37.336Z,24.77
2018-12-25T01:53:45.007Z,24.84
2018-12-25T01:55:52.017Z,24.80
2018-12-25T01:58:00.074Z,24.83
2018-12-25T02:00:08.127Z,24.85
2018-12-25T02:02:19.943Z,24.90
2018-12-25T02:04:27.738Z,24.73
2018-12-25T02:06:35.707Z,24.60
2018-12-25T02:08:43.957Z,24.46
2018-12-25T02:10:51.544Z,24.36
2018-12-25T02:13:00.778Z,24.26
2018-12-25T02:15:08.620Z,24.17
2018-12-25T02:17:16.779Z,23.05
2018-12-25T02:19:24.678Z,22.04
2018-12-25T02:21:32.260Z,21.49
2018-12-25T02:23:41.332Z,21.35
2018-12-25T02:25:48.463Z,21.56
2018-12-25T02:27:55.608Z,21.95
2018-12-25T02:30:02.554Z,22.31
2018-12-25T02:32:11.776Z,22.73
2018-12-25T02:34:19.014Z,23.06
2018-12-25T02:36:27.155Z,23.37
2018-12-25T02:38:34.384Z,23.71
2018-12-25T02:40:41.768Z,23.90
2018-12-25T02:42:49.508Z,24.05
2018-12-25T02:44:56.526Z,24.08
2018-12-25T02:47:03.835Z,24.05
2018-12-25T02:49:11.801Z,24.06
2018-12-25T02:51:20.007Z,23.99
2018-12-25T02:53:27.109Z,24.02
2018-12-25T02:55:34.381Z,24.05
2018-12-25T02:57:41.597Z,23.83
2018-12-25T02:59:48.582Z,23.84
2018-12-25T03:01:56.598Z,23.89
2018-12-25T03:04:03.700Z,23.82
2018-12-25T03:06:10.938Z,23.85
2018-12-25T03:08:19.310Z,23.85
2018-12-25T03:10:26.653Z,23.87
2018-12-25T03:12:33.979Z,23.85
2018-12-25T03:14:41.192Z,23.91
2018-12-25T03:16:48.815Z,23.96
2018-12-25T03:18:56.741Z,23.87
2018-12-25T03:21:04.134Z,23.90
2018-12-25T03:23:12.217Z,23.86
2018-12-25T03:25:19.805Z,23.84
2018-12-25T03:27:27.271Z,23.97
2018-12-25T03:29:35.736Z,24.02
2018-12-25T03:31:42.960Z,24.06
2018-12-25T03:33:50.783Z,24.08
2018-12-25T03:35:58.299Z,24.06
2018-12-25T03:38:05.623Z,24.09
2018-12-25T03:40:12.733Z,23.99
2018-12-25T03:42:20.113Z,23.86
2018-12-25T03:44:27.319Z,23.71
2018-12-25T03:46:34.447Z,23.61
2018-12-25T03:48:41.576Z,23.55
2018-12-25T03:50:48.896Z,23.55
2018-12-25T03:52:56.032Z,23.51
2018-12-25T03:55:03.091Z,23.59
2018-12-25T03:57:10.301Z,23.78
2018-12-25T03:59:18.384Z,23.85
2018-12-25T04:01:25.551Z,23.74
2018-12-25T04:03:33.435Z,23.71
2018-12-25T04:05:40.811Z,23.80
2018-12-25T04:07:48.759Z,23.68
2018-12-25T04:09:56.272Z,23.80
2018-12-25T04:12:03.613Z,23.68
2018-12-25T04:14:10.709Z,23.62
2018-12-25T04:16:18.505Z,23.54
2018-12-25T04:18:25.890Z,23.67
2018-12-25T04:20:32.953Z,23.60
2018-12-25T04:22:40.060Z,23.60
2018-12-25T04:24:47.289Z,23.67
2018-12-25T04:26:54.635Z,23.75
2018-12-25T04:29:01.687Z,23.83
2018-12-25T04:31:08.797Z,23.84
2018-12-25T04:33:16.141Z,23.87
2018-12-25T04:35:23.916Z,23.84
2018-12-25T04:37:31.832Z,23.80
2018-12-25T04:39:38.983Z,23.83
2018-12-25T04:41:46.291Z,23.75
2018-12-25T04:43:53.296Z,23.57
2018-12-25T04:46:00.941Z,23.52
2018-12-25T04:48:08.176Z,23.42
2018-12-25T04:50:15.918Z,23.29
2018-12-25T04:52:23.815Z,23.36
2018-12-25T04:54:31.043Z,23.27
2018-12-25T04:56:39.251Z,23.11
2018-12-25T04:58:46.433Z,23.54
2018-12-25T05:00:57.783Z,23.54
2018-12-25T05:03:35.877Z,23.64
2018-12-25T05:05:46.142Z,23.62
2018-12-25T05:08:24.100Z,23.65
2018-12-25T05:13:33.276Z,23.53
2018-12-25T05:15:38.921Z,23.51
2018-12-25T05:17:46.385Z,23.59
2018-12-25T05:19:53.811Z,23.52
2018-12-25T05:22:01.031Z,23.60
2018-12-25T05:24:08.201Z,23.51
2018-12-25T05:26:15.416Z,23.55
2018-12-25T05:28:22.362Z,23.51
2018-12-25T05:30:30.799Z,23.34
2018-12-25T05:32:38.404Z,23.45
2018-12-25T05:34:45.549Z,23.45
2018-12-25T05:36:53.434Z,23.22
2018-12-25T05:39:01.233Z,23.29
2018-12-25T05:41:09.624Z,23.54
2018-12-25T05:43:17.027Z,23.69
2018-12-25T05:45:24.902Z,23.87
2018-12-25T05:47:32.155Z,23.98
2018-12-25T05:49:40.618Z,24.17
2018-12-25T05:51:47.700Z,24.09
2018-12-25T05:53:54.972Z,24.04
2018-12-25T05:56:02.345Z,23.79
2018-12-25T05:58:09.485Z,23.61
2018-12-25T06:00:16.573Z,23.52
2018-12-25T06:02:24.293Z,23.46
2018-12-25T06:04:31.616Z,23.35
2018-12-25T06:06:39.106Z,23.35
2018-12-25T06:08:47.012Z,23.24
2018-12-25T06:10:54.919Z,23.07
2018-12-25T06:13:02.392Z,23.10
2018-12-25T06:15:09.745Z,22.94
2018-12-25T06:17:17.115Z,22.94
2018-12-25T06:19:24.356Z,22.78
2018-12-25T06:21:31.393Z,23.07
2018-12-25T06:23:38.688Z,23.10
2018-12-25T06:25:45.932Z,23.28
2018-12-25T06:27:53.052Z,23.49
2018-12-25T06:30:00.786Z,23.66
2018-12-25T06:32:07.389Z,23.81
2018-12-25T06:34:14.588Z,23.89
2018-12-25T06:36:21.717Z,23.86
2018-12-25T06:38:29.065Z,23.89
2018-12-25T06:40:36.444Z,23.87
2018-12-25T06:42:43.791Z,23.84
2018-12-25T06:44:51.612Z,23.80
2018-12-25T06:47:00.134Z,23.50
2018-12-25T06:49:07.188Z,23.45
2018-12-25T06:51:15.136Z,23.46
2018-12-25T06:53:23.082Z,23.34
2018-12-25T06:55:30.156Z,23.36
2018-12-25T06:57:38.153Z,23.33
2018-12-25T06:59:47.181Z,23.33
2018-12-25T07:01:54.599Z,23.31
2018-12-25T07:04:02.130Z,23.25
2018-12-25T07:06:10.001Z,23.26
2018-12-25T07:08:17.863Z,23.15
2018-12-25T07:10:25.155Z,23.15
2018-12-25T07:12:32.586Z,23.09
2018-12-25T07:14:40.125Z,23.08
2018-12-25T07:16:47.713Z,23.04
2018-12-25T07:18:54.807Z,23.00
2018-12-25T07:21:02.034Z,22.90
2018-12-25T07:23:10.053Z,22.87
2018-12-25T07:25:17.195Z,23.01
2018-12-25T07:27:24.476Z,23.07
2018-12-25T07:29:32.304Z,23.21
2018-12-25T07:31:40.133Z,23.32
2018-12-25T07:33:48.366Z,23.42
2018-12-25T07:35:56.292Z,23.52
2018-12-25T07:38:03.540Z,23.52
2018-12-25T07:40:11.834Z,23.45
2018-12-25T07:42:19.287Z,23.43
2018-12-25T07:44:26.749Z,23.45
2018-12-25T07:46:34.157Z,23.42
2018-12-25T07:48:41.562Z,23.33
2018-12-25T07:50:49.915Z,23.32
2018-12-25T07:52:57.183Z,23.26
2018-12-25T07:55:04.458Z,23.23
2018-12-25T07:57:11.812Z,23.08
2018-12-25T07:59:19.893Z,23.07
2018-12-25T08:01:27.265Z,23.03
2018-12-25T08:03:34.587Z,23.03
2018-12-25T08:05:41.823Z,22.98
2018-12-25T08:07:49.373Z,22.98
2018-12-25T08:09:56.559Z,22.97
2018-12-25T08:12:03.699Z,22.98
2018-12-25T08:14:10.844Z,22.85
2018-12-25T08:16:18.051Z,22.84
2018-12-25T08:18:25.031Z,22.81
2018-12-25T08:20:32.355Z,22.91
2018-12-25T08:22:39.723Z,23.00
2018-12-25T08:24:47.152Z,23.09
2018-12-25T08:26:54.558Z,23.18
2018-12-25T08:29:01.685Z,23.26
2018-12-25T08:31:09.626Z,23.40
2018-12-25T08:33:16.719Z,23.46
2018-12-25T08:35:23.886Z,23.56
2018-12-25T08:37:31.089Z,23.58
2018-12-25T08:39:38.508Z,23.60
2018-12-25T08:41:45.514Z,23.53
2018-12-25T08:43:53.582Z,23.43
2018-12-25T08:46:00.647Z,23.43
2018-12-25T08:48:07.895Z,23.37
2018-12-25T08:50:15.917Z,23.30
2018-12-25T08:52:23.582Z,23.28
2018-12-25T08:54:30.771Z,23.21
2018-12-25T08:56:38.099Z,23.21
2018-12-25T08:58:45.333Z,23.09
2018-12-25T09:00:52.697Z,22.97
2018-12-25T09:03:00.212Z,23.00
2018-12-25T09:05:07.367Z,22.99
2018-12-25T09:07:14.587Z,23.01
2018-12-25T09:09:21.986Z,22.91
2018-12-25T09:11:29.999Z,22.66
2018-12-25T09:13:37.005Z,22.86
2018-12-25T09:15:44.233Z,22.89
2018-12-25T09:17:51.379Z,22.83
2018-12-25T09:19:58.856Z,22.72
2018-12-25T09:22:05.952Z,22.57
2018-12-25T09:24:13.108Z,22.42
2018-12-25T09:26:20.852Z,22.38
2018-12-25T09:28:27.932Z,22.41
2018-12-25T09:30:36.052Z,22.29
2018-12-25T09:32:43.391Z,22.37
2018-12-25T09:34:50.665Z,22.58
2018-12-25T09:36:57.918Z,22.75
2018-12-25T09:39:06.041Z,22.88
2018-12-25T09:41:13.672Z,22.97
2018-12-25T09:43:21.139Z,23.14
2018-12-25T09:45:28.482Z,23.23
2018-12-25T09:47:35.646Z,23.33
2018-12-25T09:49:43.233Z,23.42
2018-12-25T09:51:54.659Z,23.28
2018-12-25T09:54:01.178Z,23.27
2018-12-25T09:56:08.489Z,23.29
2018-12-25T09:58:15.711Z,23.24
2018-12-25T10:00:22.735Z,23.24
2018-12-25T10:02:30.946Z,23.18
2018-12-25T10:04:39.050Z,23.19
2018-12-25T10:06:46.830Z,23.07
2018-12-25T10:08:53.953Z,23.04
2018-12-25T10:11:01.295Z,22.87
2018-12-25T10:13:08.703Z,22.92
2018-12-25T10:15:15.724Z,22.81
2018-12-25T10:17:23.640Z,22.89
2018-12-25T10:19:31.266Z,22.83
2018-12-25T10:21:38.681Z,22.79
2018-12-25T10:23:45.538Z,22.74
2018-12-25T10:25:52.849Z,22.71
2018-12-25T10:28:00.228Z,22.75
2018-12-25T10:30:07.376Z,22.73
2018-12-25T10:32:14.471Z,22.65
2018-12-25T10:34:21.698Z,22.65
2018-12-25T10:36:29.857Z,22.71
2018-12-25T10:38:36.771Z,22.87
2018-12-25T10:40:44.046Z,23.02
2018-12-25T10:42:51.150Z,23.14
2018-12-25T10:44:58.292Z,23.19
2018-12-25T10:47:05.531Z,23.36
2018-12-25T10:49:12.787Z,23.50
2018-12-25T10:51:20.129Z,23.60
2018-12-25T10:53:27.202Z,23.71
2018-12-25T10:55:34.580Z,23.78
2018-12-25T10:57:41.878Z,23.76
2018-12-25T10:59:49.019Z,23.61
2018-12-25T11:01:56.328Z,23.59
2018-12-25T11:04:03.920Z,23.34
2018-12-25T11:06:11.247Z,23.57
2018-12-25T11:08:18.537Z,23.54
2018-12-25T11:10:25.622Z,23.45
2018-12-25T11:12:32.757Z,23.40
2018-12-25T11:14:40.768Z,23.32
2018-12-25T11:16:48.020Z,23.20
2018-12-25T11:18:55.609Z,23.19
2018-12-25T11:21:03.322Z,23.18
2018-12-25T11:23:10.683Z,23.06
2018-12-25T11:25:18.109Z,23.05
2018-12-25T11:27:25.274Z,23.00
2018-12-25T11:29:33.600Z,22.92
2018-12-25T11:31:40.806Z,22.96
2018-12-25T11:33:48.213Z,22.92
2018-12-25T11:35:55.814Z,22.87
2018-12-25T11:38:02.863Z,22.80
2018-12-25T11:40:10.672Z,22.84
2018-12-25T11:42:17.690Z,22.79
2018-12-25T11:44:25.033Z,22.76
2018-12-25T11:46:32.751Z,22.68
2018-12-25T11:48:40.062Z,22.56
2018-12-25T11:50:47.318Z,22.46
2018-12-25T11:52:54.490Z,22.49
2018-12-25T11:55:01.577Z,22.42
2018-12-25T11:57:08.807Z,22.40
2018-12-25T11:59:16.156Z,22.41
2018-12-25T12:01:23.334Z,22.43
2018-12-25T12:03:30.605Z,22.39
2018-12-25T12:05:37.725Z,22.48
2018-12-25T12:07:44.877Z,22.64
2018-12-25T12:09:52.661Z,22.80
2018-12-25T12:11:59.878Z,22.93
2018-12-25T12:14:07.085Z,23.14
2018-12-25T12:16:14.319Z,23.28
2018-12-25T12:18:21.826Z,23.38
2018-12-25T12:20:28.872Z,23.53
2018-12-25T12:22:37.366Z,23.52
2018-12-25T12:24:44.736Z,23.53
2018-12-25T12:26:52.202Z,23.50
2018-12-25T12:28:59.228Z,23.47
2018-12-25T12:31:06.418Z,23.34
2018-12-25T12:33:15.554Z,23.32
2018-12-25T12:35:22.758Z,23.14
2018-12-25T12:37:30.119Z,23.09
2018-12-25T12:39:37.296Z,23.20
2018-12-25T12:41:44.904Z,23.35
2018-12-25T12:43:51.928Z,23.43
2018-12-25T12:45:59.239Z,23.55
2018-12-25T12:48:06.447Z,23.70
2018-12-25T12:50:13.869Z,23.78
2018-12-25T12:52:21.202Z,23.85
2018-12-25T12:54:29.002Z,23.96
2018-12-25T12:56:36.475Z,24.12
2018-12-25T12:58:43.874Z,24.18
2018-12-25T13:00:51.256Z,24.28
2018-12-25T13:02:58.292Z,24.37
2018-12-25T13:05:05.330Z,24.48
2018-12-25T13:07:12.699Z,24.49
2018-12-25T13:09:20.092Z,24.66
2018-12-25T13:11:27.428Z,24.72
2018-12-25T13:13:34.467Z,24.75
2018-12-25T13:15:41.538Z,24.82
2018-12-25T13:17:48.772Z,24.91
2018-12-25T13:19:55.936Z,24.93
2018-12-25T13:22:03.013Z,24.94
2018-12-25T13:24:10.294Z,24.92
2018-12-25T13:26:17.898Z,24.95
2018-12-25T13:28:25.630Z,24.99
2018-12-25T13:30:32.708Z,25.05
2018-12-25T13:32:39.723Z,24.96
2018-12-25T13:34:47.015Z,24.83
2018-12-25T13:36:54.398Z,24.70
2018-12-25T13:39:01.464Z,24.67
2018-12-25T13:41:09.621Z,24.63
2018-12-25T13:43:17.490Z,24.52
2018-12-25T13:45:24.794Z,24.48
2018-12-25T13:47:32.089Z,24.34
2018-12-25T13:49:40.399Z,24.33
2018-12-25T13:51:47.540Z,24.44
2018-12-25T13:53:54.888Z,24.60
2018-12-25T13:56:02.948Z,24.77
2018-12-25T13:58:11.166Z,24.89
2018-12-25T14:00:18.244Z,24.97
2018-12-25T14:02:25.221Z,25.09
2018-12-25T14:04:32.487Z,25.16
2018-12-25T14:06:40.265Z,24.99
2018-12-25T14:08:48.357Z,24.89
2018-12-25T14:10:55.898Z,24.78
2018-12-25T14:13:03.066Z,24.64
2018-12-25T14:15:10.933Z,24.52
2018-12-25T14:17:18.046Z,24.46
2018-12-25T14:19:25.722Z,24.39
2018-12-25T14:21:33.011Z,24.33
2018-12-25T14:23:40.295Z,24.33
2018-12-25T14:25:48.428Z,24.22
2018-12-25T14:27:55.544Z,24.15
2018-12-25T14:30:03.513Z,24.11
2018-12-25T14:32:10.852Z,24.03
2018-12-25T14:34:18.166Z,24.02
2018-12-25T14:36:25.816Z,24.01
2018-12-25T14:38:33.138Z,24.05
2018-12-25T14:40:40.203Z,24.19
2018-12-25T14:42:48.572Z,24.30
2018-12-25T14:44:55.959Z,24.48
2018-12-25T14:47:03.244Z,24.76
2018-12-25T14:49:11.611Z,24.87
2018-12-25T14:51:19.622Z,25.00
2018-12-25T14:53:27.382Z,25.12
2018-12-25T14:55:35.392Z,25.12
2018-12-25T14:57:43.194Z,24.98
2018-12-25T14:59:50.779Z,24.86
2018-12-25T15:02:00.010Z,24.78
2018-12-25T15:04:07.825Z,24.73
2018-12-25T15:06:16.049Z,24.58
2018-12-25T15:08:23.304Z,24.54
2018-12-25T15:10:31.506Z,24.42
2018-12-25T15:12:38.750Z,24.41
2018-12-25T15:14:46.738Z,24.41
2018-12-25T15:16:54.052Z,24.34
2018-12-25T15:19:01.449Z,24.30
2018-12-25T15:21:08.750Z,24.25
2018-12-25T15:23:16.233Z,24.21
2018-12-25T15:25:24.173Z,24.17
2018-12-25T15:27:31.577Z,24.16
2018-12-25T15:29:38.812Z,24.08
2018-12-25T15:31:46.738Z,24.04
2018-12-25T15:33:54.019Z,24.22
2018-12-25T15:36:02.983Z,24.35
2018-12-25T15:38:10.342Z,24.54
2018-12-25T15:40:17.379Z,24.71
2018-12-25T15:42:24.697Z,24.91
2018-12-25T15:44:31.943Z,25.01
2018-12-25T15:46:39.186Z,25.15
2018-12-25T15:48:46.343Z,25.24
2018-12-25T15:50:53.642Z,25.34
2018-12-25T15:53:00.798Z,25.32
2018-12-25T15:55:09.396Z,25.17
2018-12-25T15:57:16.884Z,25.06
2018-12-25T15:59:24.333Z,24.91
2018-12-25T16:01:32.474Z,24.88
2018-12-25T16:03:40.386Z,24.84
2018-12-25T16:05:47.523Z,24.81
2018-12-25T16:07:54.719Z,24.78
2018-12-25T16:10:02.052Z,24.71
2018-12-25T16:12:09.703Z,24.72
2018-12-25T16:14:20.062Z,24.64
2018-12-25T16:16:45.979Z,24.60
2018-12-25T16:18:53.400Z,24.63
2018-12-25T16:21:00.733Z,24.62
2018-12-25T16:23:10.760Z,24.59
2018-12-25T16:25:17.967Z,24.59
2018-12-25T16:27:25.077Z,24.54
2018-12-25T16:29:33.069Z,24.51
2018-12-25T16:31:40.468Z,24.61
2018-12-25T16:33:48.491Z,24.63
2018-12-25T16:35:55.657Z,24.46
2018-12-25T16:38:02.943Z,24.47
2018-12-25T16:40:11.499Z,24.49
2018-12-25T16:42:19.364Z,24.44
2018-12-25T16:44:38.032Z,24.45
2018-12-25T16:46:45.618Z,24.37
2018-12-25T16:48:52.984Z,24.28
2018-12-25T16:51:00.203Z,24.31
2018-12-25T16:53:07.533Z,24.42
2018-12-25T16:55:15.852Z,24.80
2018-12-25T16:57:23.013Z,25.14
2018-12-25T16:59:30.279Z,25.40
2018-12-25T17:01:37.570Z,25.59
2018-12-25T17:03:49.511Z,25.78
2018-12-25T17:05:57.545Z,25.79
2018-12-25T17:08:05.631Z,25.70
2018-12-25T17:10:13.501Z,25.60
2018-12-25T17:12:21.019Z,25.42
2018-12-25T17:14:39.402Z,25.27
2018-12-25T17:16:50.512Z,25.23
2018-12-25T17:18:57.727Z,25.40
2018-12-25T17:21:05.002Z,25.38
2018-12-25T17:23:12.386Z,25.38
2018-12-25T17:25:19.679Z,25.23
2018-12-25T17:27:27.599Z,25.19
2018-12-25T17:29:34.841Z,25.21
2018-12-25T17:31:42.505Z,25.20
2018-12-25T17:33:50.761Z,25.21
2018-12-25T17:35:59.615Z,25.17
2018-12-25T17:38:07.981Z,25.17
2018-12-25T17:40:26.958Z,25.17
2018-12-25T17:43:06.447Z,25.17
2018-12-25T17:45:32.411Z,25.15
2018-12-25T17:47:39.901Z,25.08
2018-12-25T17:49:46.990Z,25.09
2018-12-25T17:51:55.174Z,25.01
2018-12-25T17:54:10.692Z,24.97
2018-12-25T17:56:12.027Z,24.93
2018-12-25T17:58:19.376Z,24.97
2018-12-25T18:00:26.690Z,24.97
2018-12-25T18:02:34.535Z,24.97
2018-12-25T18:04:41.795Z,24.89
2018-12-25T18:06:49.592Z,24.83
2018-12-25T18:08:56.739Z,24.83
2018-12-25T18:11:04.463Z,24.82
2018-12-25T18:13:12.455Z,24.86
2018-12-25T18:15:19.503Z,24.83
2018-12-25T18:17:26.776Z,24.95
2018-12-25T18:19:35.903Z,24.91
2018-12-25T18:21:43.204Z,24.88
2018-12-25T18:23:51.061Z,24.91
2018-12-25T18:25:58.397Z,24.95
2018-12-25T18:28:05.920Z,25.02
2018-12-25T18:30:13.694Z,25.01
2018-12-25T18:32:21.745Z,25.03
2018-12-25T18:34:29.012Z,25.00
2018-12-25T18:36:36.330Z,25.00
2018-12-25T18:38:43.332Z,25.01
2018-12-25T18:40:50.798Z,25.06
2018-12-25T18:42:58.683Z,25.06
2018-12-25T18:45:07.061Z,24.99
2018-12-25T18:47:14.195Z,25.01
2018-12-25T18:49:22.715Z,24.95
2018-12-25T18:51:30.527Z,24.83
2018-12-25T18:53:37.913Z,24.81
2018-12-25T18:56:09.395Z,24.87
2018-12-25T18:58:17.022Z,24.80
2018-12-25T19:00:25.146Z,24.76
2018-12-25T19:02:37.086Z,24.73
2018-12-25T19:04:55.610Z,24.71
2018-12-25T19:07:03.994Z,24.64
2018-12-25T19:09:11.537Z,24.61
2018-12-25T19:11:19.239Z,24.58
2018-12-25T19:13:27.764Z,24.62
2018-12-25T19:15:36.431Z,24.70
2018-12-25T19:17:43.607Z,24.68
2018-12-25T19:19:51.620Z,24.66
2018-12-25T19:21:58.682Z,24.89
2018-12-25T19:24:05.827Z,25.05
2018-12-25T19:26:14.542Z,25.19
2018-12-25T19:28:21.573Z,25.37
2018-12-25T19:30:30.560Z,25.48
2018-12-25T19:32:43.728Z,25.67
2018-12-25T19:34:48.507Z,25.78
2018-12-25T19:36:55.929Z,25.82
2018-12-25T19:39:03.317Z,25.82
2018-12-25T19:41:19.218Z,25.81
2018-12-25T19:43:29.012Z,25.73
2018-12-25T19:45:36.594Z,25.67
2018-12-25T19:47:43.639Z,25.55
2018-12-25T19:49:53.887Z,25.51
2018-12-25T19:52:02.679Z,25.57
2018-12-25T19:54:10.980Z,25.46
2018-12-25T19:56:18.953Z,25.41
2018-12-25T19:58:27.524Z,25.38
2018-12-25T20:00:35.698Z,25.38
2018-12-25T20:02:44.239Z,25.32
2018-12-25T20:05:36.090Z,25.28
2018-12-25T20:08:29.761Z,25.29
2018-12-25T20:11:36.849Z,25.34
2018-12-25T20:14:32.446Z,25.27
2018-12-25T20:17:09.889Z,25.14
2018-12-25T20:19:59.492Z,25.04
2018-12-25T20:22:35.174Z,25.03
2018-12-25T20:25:22.890Z,24.89
2018-12-25T20:28:02.888Z,24.89
2018-12-25T20:30:56.150Z,24.95
2018-12-25T20:33:37.147Z,24.97
2018-12-25T20:36:34.875Z,24.98
2018-12-25T22:17:56.453Z,22.55
2018-12-25T22:20:14.488Z,23.09
2018-12-25T22:22:22.222Z,23.60
2018-12-25T22:24:29.605Z,23.93
2018-12-25T22:26:36.668Z,24.24
2018-12-25T22:29:00.059Z,24.46
2018-12-25T22:31:07.479Z,24.67
2018-12-25T22:33:14.843Z,24.74
2018-12-25T22:35:23.219Z,24.71
2018-12-25T22:37:31.762Z,24.86
2018-12-25T22:39:39.585Z,24.81
2018-12-25T22:41:47.141Z,24.93
2018-12-25T22:43:54.502Z,24.88
2018-12-25T22:46:01.757Z,24.83
2018-12-25T22:48:08.989Z,24.84
2018-12-25T22:50:16.588Z,24.87
2018-12-25T22:53:48.126Z,25.06
2018-12-25T22:55:56.083Z,24.94
2018-12-25T22:58:04.092Z,24.75
2018-12-25T23:00:14.200Z,24.85
2018-12-25T23:02:21.463Z,24.90
2018-12-25T23:04:28.723Z,24.97
2018-12-25T23:06:36.093Z,25.08
2018-12-25T23:08:43.326Z,25.06
2018-12-25T23:10:50.938Z,25.07
2018-12-25T23:12:58.833Z,25.10
2018-12-25T23:15:05.891Z,25.12
2018-12-25T23:17:13.465Z,25.18
2018-12-25T23:19:22.468Z,25.17
2018-12-25T23:21:30.863Z,25.02
2018-12-25T23:23:37.985Z,25.20
2018-12-25T23:25:46.039Z,25.11
2018-12-25T23:27:54.670Z,25.05
2018-12-25T23:30:05.735Z,25.05
2018-12-25T23:32:13.455Z,25.14
2018-12-25T23:34:21.203Z,25.13
2018-12-25T23:36:28.079Z,25.01
2018-12-25T23:38:36.508Z,24.96
2018-12-25T23:40:52.836Z,24.77
2018-12-25T23:43:01.736Z,24.85
2018-12-25T23:45:09.641Z,24.75
2018-12-25T23:47:17.658Z,24.75
2018-12-25T23:49:24.807Z,24.51
2018-12-25T23:51:32.818Z,24.48
2018-12-25T23:53:40.332Z,24.46
2018-12-25T23:55:52.910Z,24.54
2018-12-25T23:57:56.622Z,24.42
